KPIE/PIE METAR and TAF weather

Enter ICAO airport designator
Station Type Date Time Source
KPIE METAR 2019/12/08 13:53 UTC NOAA

KPIE 081353Z 07005KT 10SM CLR 19/16 A3019 RMK AO2 SLP221 T01890156


Station Type Date Time Source
KPIE Decoded METAR 2019/12/08 13:53 UTC NOAA

ST PETERSBURG/CLEARWATER, FL, United States (KPIE) 27-55N 82-41W 4M
Dec 08, 2019 - 08:53 AM EST / 2019.12.08 1353 UTC
Wind: from the ENE (070 degrees) at 6 MPH (5 KT):0
Visibility: 10 mile(s):0
Sky conditions: clear
Temperature: 66.0 F (18.9 C)
Dew Point: 60.1 F (15.6 C)
Relative Humidity: 81%
Pressure (altimeter): 30.19 in. Hg (1022 hPa)
ob: KPIE 081353Z 07005KT 10SM CLR 19/16 A3019 RMK AO2 SLP221 T01890156
cycle: 14

Station Type Date Time Source
KPIE TAF 2019/12/08 12:24 UTC NOAA

TAF KPIE 081121Z 0812/0912 07004KT P6SM BKN120
FM081500 08007KT P6SM SCT120 SCT250
FM081800 13007KT P6SM SCT040 SCT120 SCT250
FM090000 12004KT P6SM SCT040

Example: see airport list